sensor_id;sensor_type;location;lat;lon;timestamp;P1;durP1;ratioP1;P2;durP2;ratioP2
67640;SDS011;54434;50.096;20.082;2023-08-06T00:00:14;49.90;;;27.40;;
67640;SDS011;54434;50.096;20.082;2023-08-06T00:03:11;54.40;;;29.10;;
67640;SDS011;54434;50.096;20.082;2023-08-06T00:05:48;52.30;;;28.20;;
67640;SDS011;54434;50.096;20.082;2023-08-06T00:08:24;56.10;;;29.30;;
67640;SDS011;54434;50.096;20.082;2023-08-06T00:11:00;53.60;;;28.60;;
67640;SDS011;54434;50.096;20.082;2023-08-06T00:13:37;45.40;;;25.40;;
67640;SDS011;54434;50.096;20.082;2023-08-06T00:16:14;42.00;;;24.10;;
67640;SDS011;54434;50.096;20.082;2023-08-06T00:18:51;39.00;;;23.00;;
67640;SDS011;54434;50.096;20.082;2023-08-06T00:21:27;40.10;;;22.80;;
67640;SDS011;54434;50.096;20.082;2023-08-06T00:24:04;40.30;;;22.30;;
67640;SDS011;54434;50.096;20.082;2023-08-06T00:26:41;40.20;;;21.80;;
67640;SDS011;54434;50.096;20.082;2023-08-06T00:29:18;32.50;;;20.00;;
67640;SDS011;54434;50.096;20.082;2023-08-06T00:31:54;32.20;;;19.20;;
67640;SDS011;54434;50.096;20.082;2023-08-06T00:34:31;28.30;;;18.40;;
67640;SDS011;54434;50.096;20.082;2023-08-06T00:37:08;29.70;;;18.60;;
67640;SDS011;54434;50.096;20.082;2023-08-06T00:39:45;28.50;;;17.70;;
67640;SDS011;54434;50.096;20.082;2023-08-06T00:42:21;26.60;;;17.50;;
67640;SDS011;54434;50.096;20.082;2023-08-06T00:44:58;31.50;;;18.10;;
67640;SDS011;54434;50.096;20.082;2023-08-06T00:47:34;29.00;;;18.60;;
67640;SDS011;54434;50.096;20.082;2023-08-06T00:50:13;32.90;;;18.60;;
67640;SDS011;54434;50.096;20.082;2023-08-06T00:52:51;31.60;;;19.10;;
67640;SDS011;54434;50.096;20.082;2023-08-06T00:55:27;30.20;;;18.10;;
67640;SDS011;54434;50.096;20.082;2023-08-06T00:58:05;25.80;;;17.40;;
67640;SDS011;54434;50.096;20.082;2023-08-06T01:00:42;27.50;;;18.10;;
67640;SDS011;54434;50.096;20.082;2023-08-06T01:03:21;28.80;;;17.60;;
67640;SDS011;54434;50.096;20.082;2023-08-06T01:05:57;25.10;;;17.10;;
67640;SDS011;54434;50.096;20.082;2023-08-06T01:08:45;27.30;;;17.50;;
67640;SDS011;54434;50.096;20.082;2023-08-06T01:11:37;31.00;;;17.70;;
67640;SDS011;54434;50.096;20.082;2023-08-06T01:14:29;30.30;;;17.80;;
67640;SDS011;54434;50.096;20.082;2023-08-06T01:17:11;28.50;;;17.50;;
67640;SDS011;54434;50.096;20.082;2023-08-06T01:19:49;29.00;;;17.30;;
67640;SDS011;54434;50.096;20.082;2023-08-06T01:22:25;47.10;;;28.60;;
67640;SDS011;54434;50.096;20.082;2023-08-06T01:25:02;66.20;;;38.30;;
67640;SDS011;54434;50.096;20.082;2023-08-06T01:27:46;63.50;;;35.60;;
67640;SDS011;54434;50.096;20.082;2023-08-06T01:30:28;58.90;;;32.00;;
67640;SDS011;54434;50.096;20.082;2023-08-06T01:33:14;53.60;;;30.60;;
67640;SDS011;54434;50.096;20.082;2023-08-06T01:35:55;48.40;;;27.00;;
67640;SDS011;54434;50.096;20.082;2023-08-06T01:38:32;51.60;;;28.90;;
67640;SDS011;54434;50.096;20.082;2023-08-06T01:41:08;48.70;;;28.80;;
67640;SDS011;54434;50.096;20.082;2023-08-06T01:43:45;61.20;;;33.30;;
67640;SDS011;54434;50.096;20.082;2023-08-06T01:46:21;62.10;;;34.00;;
67640;SDS011;54434;50.096;20.082;2023-08-06T01:48:58;66.30;;;34.60;;
67640;SDS011;54434;50.096;20.082;2023-08-06T01:51:34;67.30;;;36.00;;
67640;SDS011;54434;50.096;20.082;2023-08-06T01:54:11;65.20;;;36.10;;
67640;SDS011;54434;50.096;20.082;2023-08-06T01:56:59;69.30;;;36.20;;
67640;SDS011;54434;50.096;20.082;2023-08-06T01:59:35;73.40;;;36.60;;
67640;SDS011;54434;50.096;20.082;2023-08-06T02:02:12;74.90;;;36.60;;
67640;SDS011;54434;50.096;20.082;2023-08-06T02:04:48;64.80;;;35.70;;
67640;SDS011;54434;50.096;20.082;2023-08-06T02:07:25;63.60;;;34.60;;
67640;SDS011;54434;50.096;20.082;2023-08-06T02:10:02;63.80;;;34.40;;
67640;SDS011;54434;50.096;20.082;2023-08-06T02:12:40;67.60;;;35.70;;
67640;SDS011;54434;50.096;20.082;2023-08-06T02:15:16;67.00;;;34.90;;
67640;SDS011;54434;50.096;20.082;2023-08-06T02:17:53;70.30;;;35.70;;
67640;SDS011;54434;50.096;20.082;2023-08-06T02:20:29;63.60;;;34.90;;
67640;SDS011;54434;50.096;20.082;2023-08-06T02:23:06;61.10;;;34.00;;
67640;SDS011;54434;50.096;20.082;2023-08-06T02:25:43;60.40;;;33.90;;
67640;SDS011;54434;50.096;20.082;2023-08-06T02:28:19;66.20;;;34.80;;
67640;SDS011;54434;50.096;20.082;2023-08-06T02:30:56;61.90;;;33.90;;
67640;SDS011;54434;50.096;20.082;2023-08-06T02:33:34;61.70;;;33.30;;
67640;SDS011;54434;50.096;20.082;2023-08-06T02:36:10;52.60;;;29.30;;
67640;SDS011;54434;50.096;20.082;2023-08-06T02:38:47;50.40;;;28.40;;
67640;SDS011;54434;50.096;20.082;2023-08-06T02:41:24;42.00;;;24.80;;
67640;SDS011;54434;50.096;20.082;2023-08-06T02:44:03;43.10;;;24.80;;
67640;SDS011;54434;50.096;20.082;2023-08-06T02:46:40;46.00;;;26.50;;
67640;SDS011;54434;50.096;20.082;2023-08-06T02:49:16;44.30;;;26.90;;
67640;SDS011;54434;50.096;20.082;2023-08-06T02:51:53;38.60;;;21.80;;
67640;SDS011;54434;50.096;20.082;2023-08-06T02:54:30;36.10;;;21.20;;
67640;SDS011;54434;50.096;20.082;2023-08-06T02:57:08;42.70;;;23.40;;
67640;SDS011;54434;50.096;20.082;2023-08-06T02:59:45;40.10;;;20.60;;
67640;SDS011;54434;50.096;20.082;2023-08-06T03:02:25;38.00;;;21.10;;
67640;SDS011;54434;50.096;20.082;2023-08-06T03:05:10;32.80;;;20.20;;
67640;SDS011;54434;50.096;20.082;2023-08-06T03:07:48;41.20;;;20.60;;
67640;SDS011;54434;50.096;20.082;2023-08-06T03:10:28;35.90;;;20.80;;
67640;SDS011;54434;50.096;20.082;2023-08-06T03:13:06;37.20;;;20.00;;
67640;SDS011;54434;50.096;20.082;2023-08-06T03:15:42;35.40;;;20.10;;
67640;SDS011;54434;50.096;20.082;2023-08-06T03:18:26;35.30;;;20.50;;
67640;SDS011;54434;50.096;20.082;2023-08-06T03:21:04;33.90;;;20.00;;
67640;SDS011;54434;50.096;20.082;2023-08-06T03:23:41;37.30;;;20.30;;
67640;SDS011;54434;50.096;20.082;2023-08-06T03:26:17;39.00;;;20.10;;
67640;SDS011;54434;50.096;20.082;2023-08-06T03:28:54;36.90;;;20.00;;
67640;SDS011;54434;50.096;20.082;2023-08-06T03:31:31;32.20;;;19.20;;
67640;SDS011;54434;50.096;20.082;2023-08-06T03:34:08;37.00;;;20.30;;
67640;SDS011;54434;50.096;20.082;2023-08-06T03:36:46;35.60;;;19.80;;
67640;SDS011;54434;50.096;20.082;2023-08-06T03:39:23;37.50;;;20.30;;
67640;SDS011;54434;50.096;20.082;2023-08-06T03:41:59;33.40;;;20.00;;
67640;SDS011;54434;50.096;20.082;2023-08-06T03:44:35;40.70;;;19.60;;
67640;SDS011;54434;50.096;20.082;2023-08-06T03:47:13;37.20;;;20.00;;
67640;SDS011;54434;50.096;20.082;2023-08-06T03:49:52;38.30;;;21.00;;
67640;SDS011;54434;50.096;20.082;2023-08-06T03:52:28;31.40;;;19.60;;
67640;SDS011;54434;50.096;20.082;2023-08-06T03:55:06;37.50;;;20.10;;
67640;SDS011;54434;50.096;20.082;2023-08-06T03:57:42;34.80;;;19.80;;
67640;SDS011;54434;50.096;20.082;2023-08-06T04:00:19;34.20;;;19.70;;
67640;SDS011;54434;50.096;20.082;2023-08-06T04:02:56;31.30;;;19.30;;
67640;SDS011;54434;50.096;20.082;2023-08-06T04:05:35;36.80;;;20.10;;
67640;SDS011;54434;50.096;20.082;2023-08-06T04:08:11;30.80;;;19.10;;
67640;SDS011;54434;50.096;20.082;2023-08-06T04:10:50;32.70;;;19.00;;
67640;SDS011;54434;50.096;20.082;2023-08-06T04:13:27;29.40;;;18.00;;
67640;SDS011;54434;50.096;20.082;2023-08-06T04:16:05;30.90;;;17.30;;
67640;SDS011;54434;50.096;20.082;2023-08-06T04:18:42;29.60;;;18.90;;
67640;SDS011;54434;50.096;20.082;2023-08-06T04:21:19;31.40;;;18.30;;
67640;SDS011;54434;50.096;20.082;2023-08-06T04:23:55;26.10;;;17.60;;
67640;SDS011;54434;50.096;20.082;2023-08-06T04:26:32;29.60;;;17.20;;
67640;SDS011;54434;50.096;20.082;2023-08-06T04:29:09;26.30;;;16.30;;
67640;SDS011;54434;50.096;20.082;2023-08-06T04:31:45;26.80;;;16.20;;
67640;SDS011;54434;50.096;20.082;2023-08-06T04:34:22;23.00;;;15.20;;
67640;SDS011;54434;50.096;20.082;2023-08-06T04:36:59;25.80;;;15.70;;
67640;SDS011;54434;50.096;20.082;2023-08-06T04:39:36;25.10;;;15.70;;
67640;SDS011;54434;50.096;20.082;2023-08-06T04:42:12;23.70;;;15.10;;
67640;SDS011;54434;50.096;20.082;2023-08-06T04:44:49;25.90;;;14.70;;
67640;SDS011;54434;50.096;20.082;2023-08-06T04:47:26;25.60;;;14.30;;
67640;SDS011;54434;50.096;20.082;2023-08-06T04:50:02;26.60;;;14.70;;
67640;SDS011;54434;50.096;20.082;2023-08-06T04:52:40;24.30;;;14.50;;
67640;SDS011;54434;50.096;20.082;2023-08-06T04:55:17;21.50;;;14.60;;
67640;SDS011;54434;50.096;20.082;2023-08-06T04:57:53;21.30;;;13.70;;
67640;SDS011;54434;50.096;20.082;2023-08-06T05:00:30;22.50;;;13.90;;
67640;SDS011;54434;50.096;20.082;2023-08-06T05:03:07;22.50;;;14.20;;
67640;SDS011;54434;50.096;20.082;2023-08-06T05:05:45;19.60;;;13.60;;
67640;SDS011;54434;50.096;20.082;2023-08-06T05:08:22;21.70;;;14.10;;
67640;SDS011;54434;50.096;20.082;2023-08-06T05:10:58;21.90;;;13.90;;
67640;SDS011;54434;50.096;20.082;2023-08-06T05:13:34;23.70;;;14.10;;
67640;SDS011;54434;50.096;20.082;2023-08-06T05:16:11;23.90;;;14.20;;
67640;SDS011;54434;50.096;20.082;2023-08-06T05:18:47;23.00;;;14.00;;
67640;SDS011;54434;50.096;20.082;2023-08-06T05:21:24;21.20;;;13.80;;
67640;SDS011;54434;50.096;20.082;2023-08-06T05:24:00;20.00;;;13.40;;
67640;SDS011;54434;50.096;20.082;2023-08-06T05:26:37;17.40;;;11.90;;
67640;SDS011;54434;50.096;20.082;2023-08-06T05:29:13;17.00;;;11.10;;
67640;SDS011;54434;50.096;20.082;2023-08-06T05:31:51;16.00;;;10.90;;
67640;SDS011;54434;50.096;20.082;2023-08-06T05:34:27;17.50;;;11.40;;
67640;SDS011;54434;50.096;20.082;2023-08-06T05:37:05;17.40;;;11.00;;
67640;SDS011;54434;50.096;20.082;2023-08-06T05:39:42;15.40;;;10.50;;
67640;SDS011;54434;50.096;20.082;2023-08-06T05:42:19;16.50;;;11.10;;
67640;SDS011;54434;50.096;20.082;2023-08-06T05:44:55;18.00;;;11.40;;
67640;SDS011;54434;50.096;20.082;2023-08-06T05:47:31;17.10;;;10.50;;
67640;SDS011;54434;50.096;20.082;2023-08-06T05:50:09;16.40;;;10.20;;
67640;SDS011;54434;50.096;20.082;2023-08-06T05:52:46;15.30;;;9.80;;
67640;SDS011;54434;50.096;20.082;2023-08-06T05:55:23;15.60;;;10.00;;
67640;SDS011;54434;50.096;20.082;2023-08-06T05:57:59;13.80;;;9.60;;
67640;SDS011;54434;50.096;20.082;2023-08-06T06:00:36;12.50;;;9.50;;
67640;SDS011;54434;50.096;20.082;2023-08-06T06:03:12;15.60;;;9.80;;
67640;SDS011;54434;50.096;20.082;2023-08-06T06:05:49;13.50;;;9.30;;
67640;SDS011;54434;50.096;20.082;2023-08-06T06:08:25;15.10;;;9.60;;
67640;SDS011;54434;50.096;20.082;2023-08-06T06:11:02;15.80;;;10.10;;
67640;SDS011;54434;50.096;20.082;2023-08-06T06:13:38;17.10;;;9.50;;
67640;SDS011;54434;50.096;20.082;2023-08-06T06:16:15;15.20;;;10.00;;
67640;SDS011;54434;50.096;20.082;2023-08-06T06:18:52;15.90;;;10.90;;
67640;SDS011;54434;50.096;20.082;2023-08-06T06:21:30;16.40;;;10.80;;
67640;SDS011;54434;50.096;20.082;2023-08-06T06:24:07;18.70;;;11.50;;
67640;SDS011;54434;50.096;20.082;2023-08-06T06:26:44;23.50;;;14.10;;
67640;SDS011;54434;50.096;20.082;2023-08-06T06:29:20;24.50;;;14.30;;
67640;SDS011;54434;50.096;20.082;2023-08-06T06:31:57;24.90;;;14.00;;
67640;SDS011;54434;50.096;20.082;2023-08-06T06:34:33;25.60;;;14.40;;
67640;SDS011;54434;50.096;20.082;2023-08-06T06:37:09;30.00;;;16.20;;
67640;SDS011;54434;50.096;20.082;2023-08-06T06:39:46;27.30;;;15.50;;
67640;SDS011;54434;50.096;20.082;2023-08-06T06:42:22;30.90;;;16.30;;
67640;SDS011;54434;50.096;20.082;2023-08-06T06:45:04;31.40;;;16.00;;
67640;SDS011;54434;50.096;20.082;2023-08-06T06:47:41;28.30;;;15.90;;
67640;SDS011;54434;50.096;20.082;2023-08-06T06:50:18;27.80;;;15.30;;
67640;SDS011;54434;50.096;20.082;2023-08-06T06:52:55;30.40;;;16.10;;
67640;SDS011;54434;50.096;20.082;2023-08-06T06:55:31;29.40;;;16.30;;
67640;SDS011;54434;50.096;20.082;2023-08-06T06:58:09;33.30;;;17.50;;
67640;SDS011;54434;50.096;20.082;2023-08-06T07:00:45;33.80;;;16.80;;
67640;SDS011;54434;50.096;20.082;2023-08-06T07:03:22;41.80;;;16.70;;
67640;SDS011;54434;50.096;20.082;2023-08-06T07:06:01;28.80;;;17.60;;
67640;SDS011;54434;50.096;20.082;2023-08-06T07:08:39;32.60;;;17.90;;
67640;SDS011;54434;50.096;20.082;2023-08-06T07:11:15;33.80;;;18.50;;
67640;SDS011;54434;50.096;20.082;2023-08-06T07:13:57;38.60;;;18.90;;
67640;SDS011;54434;50.096;20.082;2023-08-06T07:16:33;32.80;;;17.20;;
67640;SDS011;54434;50.096;20.082;2023-08-06T07:19:10;34.00;;;17.70;;
67640;SDS011;54434;50.096;20.082;2023-08-06T07:21:46;31.40;;;17.60;;
67640;SDS011;54434;50.096;20.082;2023-08-06T07:24:24;35.70;;;17.30;;
67640;SDS011;54434;50.096;20.082;2023-08-06T07:27:00;36.60;;;18.10;;
67640;SDS011;54434;50.096;20.082;2023-08-06T07:29:37;31.50;;;17.40;;
67640;SDS011;54434;50.096;20.082;2023-08-06T07:32:13;31.20;;;17.30;;
67640;SDS011;54434;50.096;20.082;2023-08-06T07:34:50;31.20;;;16.00;;
67640;SDS011;54434;50.096;20.082;2023-08-06T07:37:30;32.10;;;17.30;;
67640;SDS011;54434;50.096;20.082;2023-08-06T07:40:09;28.80;;;16.40;;
67640;SDS011;54434;50.096;20.082;2023-08-06T07:42:47;30.60;;;16.40;;
67640;SDS011;54434;50.096;20.082;2023-08-06T07:45:23;28.60;;;15.40;;
67640;SDS011;54434;50.096;20.082;2023-08-06T07:48:01;32.20;;;15.70;;
67640;SDS011;54434;50.096;20.082;2023-08-06T07:50:38;26.00;;;15.00;;
67640;SDS011;54434;50.096;20.082;2023-08-06T07:53:15;26.70;;;14.80;;
67640;SDS011;54434;50.096;20.082;2023-08-06T07:55:53;26.80;;;13.90;;
67640;SDS011;54434;50.096;20.082;2023-08-06T07:58:30;24.60;;;13.70;;
67640;SDS011;54434;50.096;20.082;2023-08-06T08:01:07;28.30;;;13.40;;
67640;SDS011;54434;50.096;20.082;2023-08-06T08:03:43;25.40;;;13.90;;
67640;SDS011;54434;50.096;20.082;2023-08-06T08:06:20;26.90;;;13.20;;
67640;SDS011;54434;50.096;20.082;2023-08-06T08:08:57;17.80;;;9.60;;
67640;SDS011;54434;50.096;20.082;2023-08-06T08:11:33;8.80;;;5.20;;
67640;SDS011;54434;50.096;20.082;2023-08-06T08:14:09;7.40;;;4.00;;
67640;SDS011;54434;50.096;20.082;2023-08-06T08:16:46;4.60;;;2.50;;
67640;SDS011;54434;50.096;20.082;2023-08-06T08:19:22;4.80;;;2.30;;
67640;SDS011;54434;50.096;20.082;2023-08-06T08:21:59;3.90;;;2.20;;
67640;SDS011;54434;50.096;20.082;2023-08-06T08:24:35;2.20;;;1.60;;
67640;SDS011;54434;50.096;20.082;2023-08-06T08:27:12;3.30;;;1.50;;
67640;SDS011;54434;50.096;20.082;2023-08-06T08:29:48;3.20;;;1.40;;
67640;SDS011;54434;50.096;20.082;2023-08-06T08:32:25;1.40;;;1.20;;
67640;SDS011;54434;50.096;20.082;2023-08-06T08:35:01;1.40;;;1.30;;
67640;SDS011;54434;50.096;20.082;2023-08-06T08:37:38;2.40;;;1.10;;
67640;SDS011;54434;50.096;20.082;2023-08-06T08:40:17;3.20;;;1.40;;
67640;SDS011;54434;50.096;20.082;2023-08-06T08:42:54;1.20;;;1.10;;
67640;SDS011;54434;50.096;20.082;2023-08-06T08:45:36;1.90;;;1.10;;
67640;SDS011;54434;50.096;20.082;2023-08-06T08:48:17;1.10;;;1.00;;
67640;SDS011;54434;50.096;20.082;2023-08-06T08:50:54;3.10;;;1.20;;
67640;SDS011;54434;50.096;20.082;2023-08-06T08:53:32;3.70;;;2.30;;
67640;SDS011;54434;50.096;20.082;2023-08-06T08:56:12;1.40;;;1.10;;
67640;SDS011;54434;50.096;20.082;2023-08-06T08:58:49;2.50;;;0.90;;
67640;SDS011;54434;50.096;20.082;2023-08-06T09:01:26;1.90;;;1.00;;
67640;SDS011;54434;50.096;20.082;2023-08-06T09:04:04;1.30;;;0.90;;
67640;SDS011;54434;50.096;20.082;2023-08-06T09:06:42;18.90;;;8.30;;
67640;SDS011;54434;50.096;20.082;2023-08-06T09:09:28;2.50;;;1.00;;
67640;SDS011;54434;50.096;20.082;2023-08-06T09:12:14;0.70;;;0.70;;
67640;SDS011;54434;50.096;20.082;2023-08-06T09:14:51;0.60;;;0.60;;
67640;SDS011;54434;50.096;20.082;2023-08-06T09:17:28;2.00;;;1.00;;
67640;SDS011;54434;50.096;20.082;2023-08-06T09:20:15;0.70;;;0.70;;
67640;SDS011;54434;50.096;20.082;2023-08-06T09:22:54;1.30;;;1.00;;
67640;SDS011;54434;50.096;20.082;2023-08-06T09:25:30;2.00;;;1.00;;
67640;SDS011;54434;50.096;20.082;2023-08-06T09:28:07;0.80;;;0.80;;
67640;SDS011;54434;50.096;20.082;2023-08-06T09:30:44;0.60;;;0.60;;
67640;SDS011;54434;50.096;20.082;2023-08-06T09:33:23;0.50;;;0.50;;
67640;SDS011;54434;50.096;20.082;2023-08-06T09:36:12;1.70;;;0.60;;
67640;SDS011;54434;50.096;20.082;2023-08-06T09:38:49;0.90;;;0.60;;
67640;SDS011;54434;50.096;20.082;2023-08-06T09:41:30;0.60;;;0.60;;
67640;SDS011;54434;50.096;20.082;2023-08-06T09:44:16;0.80;;;0.80;;
67640;SDS011;54434;50.096;20.082;2023-08-06T09:46:54;0.70;;;0.70;;
67640;SDS011;54434;50.096;20.082;2023-08-06T09:49:42;1.10;;;0.80;;
67640;SDS011;54434;50.096;20.082;2023-08-06T09:52:19;2.40;;;0.80;;
67640;SDS011;54434;50.096;20.082;2023-08-06T09:54:56;18.90;;;11.60;;
67640;SDS011;54434;50.096;20.082;2023-08-06T09:57:33;2.20;;;1.80;;
67640;SDS011;54434;50.096;20.082;2023-08-06T10:00:12;1.40;;;0.90;;
67640;SDS011;54434;50.096;20.082;2023-08-06T10:02:52;0.90;;;0.90;;
67640;SDS011;54434;50.096;20.082;2023-08-06T10:05:31;0.80;;;0.80;;
67640;SDS011;54434;50.096;20.082;2023-08-06T10:08:08;1.90;;;0.80;;
67640;SDS011;54434;50.096;20.082;2023-08-06T10:10:45;1.30;;;1.00;;
67640;SDS011;54434;50.096;20.082;2023-08-06T10:13:22;2.20;;;0.90;;
67640;SDS011;54434;50.096;20.082;2023-08-06T10:16:00;1.20;;;1.10;;
67640;SDS011;54434;50.096;20.082;2023-08-06T10:18:40;1.20;;;0.90;;
67640;SDS011;54434;50.096;20.082;2023-08-06T10:21:17;2.20;;;0.90;;
67640;SDS011;54434;50.096;20.082;2023-08-06T10:23:58;1.00;;;0.90;;
67640;SDS011;54434;50.096;20.082;2023-08-06T10:26:35;0.80;;;0.80;;
67640;SDS011;54434;50.096;20.082;2023-08-06T10:29:37;1.90;;;0.90;;
67640;SDS011;54434;50.096;20.082;2023-08-06T10:32:14;0.90;;;0.90;;
67640;SDS011;54434;50.096;20.082;2023-08-06T10:34:59;1.10;;;1.00;;
67640;SDS011;54434;50.096;20.082;2023-08-06T10:37:39;3.60;;;1.80;;
67640;SDS011;54434;50.096;20.082;2023-08-06T10:40:22;2.40;;;1.20;;
67640;SDS011;54434;50.096;20.082;2023-08-06T10:43:01;1.40;;;1.00;;
67640;SDS011;54434;50.096;20.082;2023-08-06T10:45:51;1.00;;;1.00;;
67640;SDS011;54434;50.096;20.082;2023-08-06T10:48:36;1.20;;;1.10;;
67640;SDS011;54434;50.096;20.082;2023-08-06T10:51:14;1.80;;;1.20;;
67640;SDS011;54434;50.096;20.082;2023-08-06T10:53:51;2.00;;;1.10;;
67640;SDS011;54434;50.096;20.082;2023-08-06T10:56:29;5.00;;;1.20;;
67640;SDS011;54434;50.096;20.082;2023-08-06T10:59:05;5.30;;;1.50;;
67640;SDS011;54434;50.096;20.082;2023-08-06T11:01:44;1.90;;;1.10;;
67640;SDS011;54434;50.096;20.082;2023-08-06T11:04:21;1.00;;;1.00;;
67640;SDS011;54434;50.096;20.082;2023-08-06T11:06:58;1.40;;;1.10;;
67640;SDS011;54434;50.096;20.082;2023-08-06T11:09:34;2.50;;;1.10;;
67640;SDS011;54434;50.096;20.082;2023-08-06T11:12:17;1.80;;;1.30;;
67640;SDS011;54434;50.096;20.082;2023-08-06T11:14:54;2.00;;;1.20;;
67640;SDS011;54434;50.096;20.082;2023-08-06T11:17:33;3.40;;;1.10;;
67640;SDS011;54434;50.096;20.082;2023-08-06T11:20:12;1.90;;;1.20;;
67640;SDS011;54434;50.096;20.082;2023-08-06T11:22:50;1.80;;;1.40;;
67640;SDS011;54434;50.096;20.082;2023-08-06T11:25:26;1.60;;;1.30;;
67640;SDS011;54434;50.096;20.082;2023-08-06T11:28:04;2.20;;;1.30;;
67640;SDS011;54434;50.096;20.082;2023-08-06T11:30:42;2.80;;;1.50;;
67640;SDS011;54434;50.096;20.082;2023-08-06T11:33:23;1.20;;;1.10;;
67640;SDS011;54434;50.096;20.082;2023-08-06T11:36:01;2.30;;;1.20;;
67640;SDS011;54434;50.096;20.082;2023-08-06T11:38:38;2.70;;;1.10;;
67640;SDS011;54434;50.096;20.082;2023-08-06T11:41:14;1.90;;;1.30;;
67640;SDS011;54434;50.096;20.082;2023-08-06T11:43:52;1.40;;;1.10;;
67640;SDS011;54434;50.096;20.082;2023-08-06T11:46:29;1.40;;;1.00;;
67640;SDS011;54434;50.096;20.082;2023-08-06T11:49:39;2.60;;;1.10;;
67640;SDS011;54434;50.096;20.082;2023-08-06T11:52:22;4.60;;;2.10;;
67640;SDS011;54434;50.096;20.082;2023-08-06T11:55:08;1.50;;;1.10;;
67640;SDS011;54434;50.096;20.082;2023-08-06T11:57:46;1.30;;;1.10;;
67640;SDS011;54434;50.096;20.082;2023-08-06T12:00:24;2.50;;;1.70;;
67640;SDS011;54434;50.096;20.082;2023-08-06T12:03:01;3.40;;;1.30;;
67640;SDS011;54434;50.096;20.082;2023-08-06T12:05:39;1.30;;;1.20;;
67640;SDS011;54434;50.096;20.082;2023-08-06T12:08:16;2.00;;;1.40;;
67640;SDS011;54434;50.096;20.082;2023-08-06T12:10:52;1.40;;;1.30;;
67640;SDS011;54434;50.096;20.082;2023-08-06T12:13:29;1.50;;;1.10;;
67640;SDS011;54434;50.096;20.082;2023-08-06T12:16:06;1.60;;;1.30;;
67640;SDS011;54434;50.096;20.082;2023-08-06T12:18:42;2.40;;;1.20;;
67640;SDS011;54434;50.096;20.082;2023-08-06T12:21:19;1.40;;;1.20;;
67640;SDS011;54434;50.096;20.082;2023-08-06T12:23:55;1.10;;;1.00;;
67640;SDS011;54434;50.096;20.082;2023-08-06T12:26:32;1.90;;;1.00;;
67640;SDS011;54434;50.096;20.082;2023-08-06T12:29:11;3.60;;;1.70;;
67640;SDS011;54434;50.096;20.082;2023-08-06T12:31:48;3.50;;;1.30;;
67640;SDS011;54434;50.096;20.082;2023-08-06T12:34:25;1.80;;;1.20;;
67640;SDS011;54434;50.096;20.082;2023-08-06T12:37:19;0.80;;;0.70;;
67640;SDS011;54434;50.096;20.082;2023-08-06T12:39:56;1.80;;;0.80;;
67640;SDS011;54434;50.096;20.082;2023-08-06T12:42:53;2.40;;;0.90;;
67640;SDS011;54434;50.096;20.082;2023-08-06T12:45:30;1.80;;;0.70;;
67640;SDS011;54434;50.096;20.082;2023-08-06T12:48:07;0.80;;;0.80;;
67640;SDS011;54434;50.096;20.082;2023-08-06T12:50:44;1.40;;;0.80;;
67640;SDS011;54434;50.096;20.082;2023-08-06T12:53:23;0.70;;;0.70;;
67640;SDS011;54434;50.096;20.082;2023-08-06T12:56:00;0.80;;;0.80;;
67640;SDS011;54434;50.096;20.082;2023-08-06T12:58:39;0.90;;;0.90;;
67640;SDS011;54434;50.096;20.082;2023-08-06T13:01:16;1.10;;;0.80;;
67640;SDS011;54434;50.096;20.082;2023-08-06T13:03:53;1.70;;;1.00;;
67640;SDS011;54434;50.096;20.082;2023-08-06T13:06:48;1.20;;;1.10;;
67640;SDS011;54434;50.096;20.082;2023-08-06T13:09:24;1.20;;;1.10;;
67640;SDS011;54434;50.096;20.082;2023-08-06T13:12:06;2.60;;;1.60;;
67640;SDS011;54434;50.096;20.082;2023-08-06T13:14:42;3.30;;;1.50;;
67640;SDS011;54434;50.096;20.082;2023-08-06T13:17:20;1.90;;;1.10;;
67640;SDS011;54434;50.096;20.082;2023-08-06T13:19:56;1.30;;;1.00;;
67640;SDS011;54434;50.096;20.082;2023-08-06T13:22:33;2.40;;;1.00;;
67640;SDS011;54434;50.096;20.082;2023-08-06T13:25:09;3.30;;;0.90;;
67640;SDS011;54434;50.096;20.082;2023-08-06T13:27:47;1.40;;;0.90;;
67640;SDS011;54434;50.096;20.082;2023-08-06T13:30:25;1.30;;;0.80;;
67640;SDS011;54434;50.096;20.082;2023-08-06T13:33:01;0.80;;;0.80;;
67640;SDS011;54434;50.096;20.082;2023-08-06T13:35:40;1.30;;;0.90;;
67640;SDS011;54434;50.096;20.082;2023-08-06T13:38:16;0.70;;;0.70;;
67640;SDS011;54434;50.096;20.082;2023-08-06T13:40:55;1.10;;;0.70;;
67640;SDS011;54434;50.096;20.082;2023-08-06T13:43:31;0.70;;;0.70;;
67640;SDS011;54434;50.096;20.082;2023-08-06T13:46:08;1.10;;;0.80;;
67640;SDS011;54434;50.096;20.082;2023-08-06T13:48:50;0.70;;;0.70;;
67640;SDS011;54434;50.096;20.082;2023-08-06T13:51:29;1.90;;;1.00;;
67640;SDS011;54434;50.096;20.082;2023-08-06T13:54:07;2.50;;;1.60;;
67640;SDS011;54434;50.096;20.082;2023-08-06T13:56:44;2.00;;;1.50;;
67640;SDS011;54434;50.096;20.082;2023-08-06T13:59:20;1.50;;;1.30;;
67640;SDS011;54434;50.096;20.082;2023-08-06T14:01:58;2.10;;;1.10;;
67640;SDS011;54434;50.096;20.082;2023-08-06T14:04:36;1.20;;;1.10;;
67640;SDS011;54434;50.096;20.082;2023-08-06T14:07:14;1.30;;;1.00;;
67640;SDS011;54434;50.096;20.082;2023-08-06T14:09:51;1.20;;;1.10;;
67640;SDS011;54434;50.096;20.082;2023-08-06T14:12:28;1.60;;;1.00;;
67640;SDS011;54434;50.096;20.082;2023-08-06T14:15:05;1.80;;;1.20;;
67640;SDS011;54434;50.096;20.082;2023-08-06T14:17:43;1.10;;;1.00;;
67640;SDS011;54434;50.096;20.082;2023-08-06T14:20:19;1.30;;;1.10;;
67640;SDS011;54434;50.096;20.082;2023-08-06T14:22:56;1.10;;;1.00;;
67640;SDS011;54434;50.096;20.082;2023-08-06T14:25:34;2.50;;;1.20;;
67640;SDS011;54434;50.096;20.082;2023-08-06T14:28:11;1.50;;;1.10;;
67640;SDS011;54434;50.096;20.082;2023-08-06T14:30:48;1.10;;;1.00;;
67640;SDS011;54434;50.096;20.082;2023-08-06T14:33:24;2.50;;;1.20;;
67640;SDS011;54434;50.096;20.082;2023-08-06T14:36:01;3.60;;;2.00;;
67640;SDS011;54434;50.096;20.082;2023-08-06T14:38:37;2.50;;;1.50;;
67640;SDS011;54434;50.096;20.082;2023-08-06T14:41:30;1.80;;;1.20;;
67640;SDS011;54434;50.096;20.082;2023-08-06T14:44:07;1.60;;;1.10;;
67640;SDS011;54434;50.096;20.082;2023-08-06T14:46:43;1.90;;;1.30;;
67640;SDS011;54434;50.096;20.082;2023-08-06T14:49:20;1.50;;;1.00;;
67640;SDS011;54434;50.096;20.082;2023-08-06T14:51:57;2.60;;;1.30;;
67640;SDS011;54434;50.096;20.082;2023-08-06T14:54:35;1.80;;;1.30;;
67640;SDS011;54434;50.096;20.082;2023-08-06T14:57:12;1.40;;;1.30;;
67640;SDS011;54434;50.096;20.082;2023-08-06T14:59:48;2.10;;;1.50;;
67640;SDS011;54434;50.096;20.082;2023-08-06T15:02:27;5.50;;;3.90;;
67640;SDS011;54434;50.096;20.082;2023-08-06T15:05:08;2.20;;;1.40;;
67640;SDS011;54434;50.096;20.082;2023-08-06T15:07:44;2.40;;;1.30;;
67640;SDS011;54434;50.096;20.082;2023-08-06T15:10:22;2.70;;;1.40;;
67640;SDS011;54434;50.096;20.082;2023-08-06T15:13:00;1.70;;;1.30;;
67640;SDS011;54434;50.096;20.082;2023-08-06T15:15:37;1.90;;;1.20;;
67640;SDS011;54434;50.096;20.082;2023-08-06T15:18:15;1.50;;;1.20;;
67640;SDS011;54434;50.096;20.082;2023-08-06T15:20:52;2.50;;;1.40;;
67640;SDS011;54434;50.096;20.082;2023-08-06T15:23:30;1.70;;;1.20;;